createdAt,value
2022-12-18T00:03:44.771Z,-4.10
2022-12-18T00:29:44.405Z,-4.00
2022-12-18T01:59:58.441Z,-3.40
2022-12-18T03:56:12.556Z,-3.80
2022-12-18T04:21:42.296Z,-3.80
2022-12-18T05:12:26.154Z,-4.00
2022-12-18T05:32:44.678Z,-4.50
2022-12-18T06:13:30.933Z,-4.80
2022-12-18T06:43:39.623Z,-4.70
2022-12-18T07:13:39.361Z,-4.30
2022-12-18T07:29:10.514Z,-4.20
2022-12-18T07:59:16.585Z,-3.70
2022-12-18T08:15:12.542Z,-3.60
2022-12-18T08:19:40.723Z,-3.50
2022-12-18T08:45:18.649Z,-2.80
2022-12-18T09:10:53.421Z,-2.50
2022-12-18T09:30:52.150Z,-2.40
2022-12-18T09:56:27.427Z,-2.10
2022-12-18T10:36:56.667Z,-2.30
2022-12-18T12:38:40.532Z,-2.00
2022-12-18T13:29:12.037Z,-2.00
2022-12-18T14:14:56.090Z,-2.70
2022-12-18T15:30:22.651Z,-3.20
2022-12-18T16:05:51.861Z,-3.10
2022-12-18T16:26:32.369Z,-3.40
2022-12-18T16:51:29.386Z,-3.50
2022-12-18T17:11:55.611Z,-3.60
2022-12-18T17:42:47.982Z,-3.60
2022-12-18T18:08:02.118Z,-3.80
2022-12-18T18:28:20.525Z,-4.00
2022-12-18T19:14:01.453Z,-4.20
2022-12-18T19:34:04.170Z,-4.20
2022-12-18T19:54:35.100Z,-4.30
2022-12-18T20:14:57.479Z,-4.40
2022-12-18T20:49:47.942Z,-4.40
2022-12-18T21:05:41.001Z,-4.20
2022-12-18T21:30:58.712Z,-4.50
2022-12-18T21:51:04.520Z,-4.50
2022-12-18T22:11:34.487Z,-4.50
2022-12-18T22:47:06.174Z,-4.70
2022-12-18T22:51:27.346Z,-4.80
2022-12-18T23:12:21.764Z,-5.00
2022-12-18T23:42:12.090Z,-5.10
